createdAt,value
2018-05-14T00:00:20.100Z,16.18
2018-05-14T00:01:25.622Z,16.18
2018-05-14T00:02:31.129Z,16.12
2018-05-14T00:03:36.682Z,16.15
2018-05-14T00:04:42.163Z,16.15
2018-05-14T00:05:47.676Z,16.12
2018-05-14T00:06:53.185Z,16.20
2018-05-14T00:07:58.711Z,16.07
2018-05-14T00:09:04.221Z,16.20
2018-05-14T00:10:09.732Z,16.22
2018-05-14T00:11:15.244Z,16.09
2018-05-14T00:12:20.772Z,16.23
2018-05-14T00:13:26.278Z,16.15
2018-05-14T00:14:31.793Z,16.07
2018-05-14T00:15:37.311Z,16.22
2018-05-14T00:16:42.829Z,16.12
2018-05-14T00:17:48.343Z,16.16
2018-05-14T00:18:53.863Z,16.11
2018-05-14T00:19:59.376Z,16.12
2018-05-14T00:21:04.883Z,16.11
2018-05-14T00:22:10.399Z,16.18
2018-05-14T00:23:15.912Z,16.12
2018-05-14T00:24:21.427Z,16.16
2018-05-14T00:25:26.950Z,16.12
2018-05-14T00:26:32.472Z,16.11
2018-05-14T00:27:37.986Z,16.15
2018-05-14T00:28:43.498Z,16.18
2018-05-14T00:29:49.002Z,16.14
2018-05-14T00:30:54.521Z,16.12
2018-05-14T00:32:00.035Z,16.15
2018-05-14T00:33:05.546Z,16.16
2018-05-14T00:34:11.067Z,16.06
2018-05-14T00:35:16.580Z,16.15
2018-05-14T00:36:22.096Z,16.12
2018-05-14T00:37:27.611Z,16.06
2018-05-14T00:38:33.125Z,16.06
2018-05-14T00:39:38.641Z,16.12
2018-05-14T00:40:44.159Z,16.00
2018-05-14T00:41:49.678Z,16.15
2018-05-14T00:42:55.194Z,16.04
2018-05-14T00:44:00.697Z,16.01
2018-05-14T00:45:06.215Z,16.12
2018-05-14T00:46:11.738Z,16.06
2018-05-14T00:47:17.258Z,16.09
2018-05-14T00:48:22.764Z,16.12
2018-05-14T00:49:28.324Z,16.15
2018-05-14T00:50:33.796Z,16.11
2018-05-14T00:51:39.304Z,16.12
2018-05-14T00:52:44.826Z,16.04
2018-05-14T00:53:50.342Z,16.14
2018-05-14T00:54:55.848Z,16.04
2018-05-14T00:56:01.401Z,16.09
2018-05-14T00:57:06.881Z,16.15
2018-05-14T00:58:12.392Z,16.12
2018-05-14T00:59:17.911Z,16.16
2018-05-14T01:00:23.437Z,16.09
2018-05-14T01:01:28.939Z,16.09
2018-05-14T01:02:34.460Z,16.07
2018-05-14T01:03:39.973Z,16.09
2018-05-14T01:04:45.494Z,16.23
2018-05-14T01:05:51.009Z,16.18
2018-05-14T01:06:56.513Z,16.14
2018-05-14T01:08:02.028Z,16.15
2018-05-14T01:09:07.541Z,16.23
2018-05-14T01:10:13.061Z,16.14
2018-05-14T01:11:18.576Z,16.20
2018-05-14T01:12:24.096Z,16.16
2018-05-14T01:13:29.602Z,16.16
2018-05-14T01:14:35.119Z,16.18
2018-05-14T01:15:40.636Z,16.12
2018-05-14T01:16:46.158Z,16.20
2018-05-14T01:17:51.674Z,16.14
2018-05-14T01:18:57.186Z,16.11
2018-05-14T01:20:02.703Z,16.18
2018-05-14T01:21:08.208Z,16.16
2018-05-14T01:22:13.723Z,16.20
2018-05-14T01:23:19.241Z,16.16
2018-05-14T01:24:24.758Z,16.30
2018-05-14T01:25:30.274Z,16.23
2018-05-14T01:26:35.788Z,16.30
2018-05-14T01:27:41.300Z,16.15
2018-05-14T01:28:46.826Z,16.11
2018-05-14T01:29:52.331Z,16.27
2018-05-14T01:30:57.844Z,16.35
2018-05-14T01:32:03.363Z,16.30
2018-05-14T01:33:08.884Z,16.26
2018-05-14T01:34:14.396Z,16.27
2018-05-14T01:35:19.926Z,16.33
2018-05-14T01:36:25.420Z,16.27
2018-05-14T01:37:30.947Z,16.20
2018-05-14T01:38:36.454Z,16.34
2018-05-14T01:39:41.972Z,16.26
2018-05-14T01:40:47.485Z,16.27
2018-05-14T01:41:53.007Z,16.30
2018-05-14T01:42:58.514Z,16.33
2018-05-14T01:44:04.026Z,16.26
2018-05-14T01:45:09.552Z,16.37
2018-05-14T01:46:15.063Z,16.26
2018-05-14T01:47:20.583Z,16.38
2018-05-14T01:48:26.089Z,16.30
2018-05-14T01:49:31.611Z,16.40
2018-05-14T01:50:37.122Z,16.37
2018-05-14T01:51:42.693Z,16.35
2018-05-14T01:52:48.153Z,16.37
2018-05-14T01:53:53.671Z,16.41
2018-05-14T01:54:59.178Z,16.45
2018-05-14T01:56:04.698Z,16.40
2018-05-14T01:57:10.227Z,16.35
2018-05-14T01:58:15.731Z,16.41
2018-05-14T01:59:21.248Z,16.42
2018-05-14T02:00:26.758Z,16.48
2018-05-14T02:01:32.276Z,16.42
2018-05-14T02:02:37.788Z,16.49
2018-05-14T02:03:43.306Z,16.31
2018-05-14T02:04:48.822Z,16.38
2018-05-14T02:05:54.336Z,16.37
2018-05-14T02:06:59.848Z,16.44
2018-05-14T02:08:05.373Z,16.42
2018-05-14T02:09:10.881Z,16.38
2018-05-14T02:10:16.404Z,16.33
2018-05-14T02:11:21.917Z,16.38
2018-05-14T02:12:27.476Z,16.44
2018-05-14T02:13:32.944Z,16.41
2018-05-14T02:14:38.459Z,16.38
2018-05-14T02:15:43.982Z,16.40
2018-05-14T02:16:49.498Z,16.42
2018-05-14T02:17:55.000Z,16.44
2018-05-14T02:19:00.515Z,16.44
2018-05-14T02:20:06.036Z,16.44
2018-05-14T02:21:11.547Z,16.41
2018-05-14T02:22:17.073Z,16.35
2018-05-14T02:23:22.577Z,16.44
2018-05-14T02:24:28.122Z,16.35
2018-05-14T02:25:33.616Z,16.44
2018-05-14T02:26:39.122Z,16.44
2018-05-14T02:27:44.646Z,16.41
2018-05-14T02:28:50.163Z,16.48
2018-05-14T02:29:55.676Z,16.44
2018-05-14T02:31:01.207Z,16.42
2018-05-14T02:32:06.750Z,16.40
2018-05-14T02:33:12.213Z,16.42
2018-05-14T02:34:17.733Z,16.45
2018-05-14T02:35:23.249Z,16.45
2018-05-14T02:36:28.761Z,16.41
2018-05-14T02:37:34.279Z,16.50
2018-05-14T02:38:39.798Z,16.35
2018-05-14T02:39:45.315Z,16.38
2018-05-14T02:40:50.828Z,16.38
2018-05-14T02:41:56.343Z,16.42
2018-05-14T02:43:01.856Z,16.45
2018-05-14T02:44:07.377Z,16.49
2018-05-14T02:45:12.888Z,16.45
2018-05-14T02:46:18.403Z,16.45
2018-05-14T02:47:23.922Z,16.41
2018-05-14T02:48:29.435Z,16.49
2018-05-14T02:49:34.950Z,16.50
2018-05-14T02:50:40.465Z,16.45
2018-05-14T02:51:45.980Z,16.48
2018-05-14T02:52:51.490Z,16.42
2018-05-14T02:53:57.012Z,16.45
2018-05-14T02:55:02.527Z,16.48
2018-05-14T02:56:08.038Z,16.49
2018-05-14T02:57:13.563Z,16.53
2018-05-14T02:58:19.077Z,16.55
2018-05-14T02:59:24.583Z,16.50
2018-05-14T03:00:30.102Z,16.53
2018-05-14T03:01:35.612Z,16.48
2018-05-14T03:02:41.125Z,16.49
2018-05-14T03:03:46.648Z,16.52
2018-05-14T03:04:52.173Z,16.56
2018-05-14T03:05:57.674Z,16.49
2018-05-14T03:07:03.193Z,16.53
2018-05-14T03:08:08.710Z,16.53
2018-05-14T03:09:14.220Z,16.56
2018-05-14T03:10:19.809Z,16.53
2018-05-14T03:11:25.256Z,16.50
2018-05-14T03:12:30.766Z,16.58
2018-05-14T03:13:36.280Z,16.56
2018-05-14T03:14:41.794Z,16.63
2018-05-14T03:15:47.316Z,16.55
2018-05-14T03:16:52.832Z,16.56
2018-05-14T03:17:58.341Z,16.50
2018-05-14T03:19:03.856Z,16.58
2018-05-14T03:20:09.381Z,16.56
2018-05-14T03:21:14.904Z,16.50
2018-05-14T03:22:20.402Z,16.53
2018-05-14T03:23:25.930Z,16.59
2018-05-14T03:24:31.432Z,16.58
2018-05-14T03:25:36.952Z,16.52
2018-05-14T03:26:42.468Z,16.58
2018-05-14T03:27:48.041Z,16.56
2018-05-14T03:28:53.492Z,16.55
2018-05-14T03:29:59.009Z,16.53
2018-05-14T03:31:04.540Z,16.49
2018-05-14T03:32:10.044Z,16.56
2018-05-14T03:33:15.559Z,16.52
2018-05-14T03:34:21.074Z,16.52
2018-05-14T03:35:26.593Z,16.60
2018-05-14T03:36:32.109Z,16.58
2018-05-14T03:37:37.617Z,16.52
2018-05-14T03:38:43.139Z,16.55
2018-05-14T03:39:48.650Z,16.53
2018-05-14T03:40:54.160Z,16.58
2018-05-14T03:41:59.680Z,16.55
2018-05-14T03:43:05.192Z,16.52
2018-05-14T03:44:10.704Z,16.53
2018-05-14T03:45:16.221Z,16.52
2018-05-14T03:46:21.748Z,16.58
2018-05-14T03:47:27.257Z,16.55
2018-05-14T03:48:32.772Z,16.52
2018-05-14T03:49:38.286Z,16.58
2018-05-14T03:50:43.801Z,16.60
2018-05-14T03:51:49.319Z,16.49
2018-05-14T03:52:54.832Z,16.52
2018-05-14T03:54:00.343Z,16.50
2018-05-14T03:55:05.884Z,16.58
2018-05-14T03:56:11.375Z,16.59
2018-05-14T03:57:16.892Z,16.53
2018-05-14T03:58:22.404Z,16.50
2018-05-14T03:59:27.926Z,16.52
2018-05-14T04:00:33.449Z,16.52
2018-05-14T04:01:38.958Z,16.49
2018-05-14T04:02:44.467Z,16.52
2018-05-14T04:03:49.981Z,16.59
2018-05-14T04:04:55.503Z,16.52
2018-05-14T04:06:01.015Z,16.70
2018-05-14T04:07:06.527Z,16.58
2018-05-14T04:08:12.048Z,16.60
2018-05-14T04:09:17.561Z,16.53
2018-05-14T04:10:23.072Z,16.68
2018-05-14T04:11:28.587Z,16.63
2018-05-14T04:12:34.109Z,16.65
2018-05-14T04:13:39.617Z,16.65
2018-05-14T04:14:45.137Z,16.60
2018-05-14T04:15:50.650Z,16.56
2018-05-14T04:16:56.166Z,16.58
2018-05-14T04:18:01.686Z,16.63
2018-05-14T04:19:07.199Z,16.58
2018-05-14T04:20:12.714Z,16.53
2018-05-14T04:21:18.227Z,16.52
2018-05-14T04:22:23.740Z,16.50
2018-05-14T04:23:29.260Z,16.50
2018-05-14T04:24:34.772Z,16.62
2018-05-14T04:25:40.285Z,16.55
2018-05-14T04:26:45.805Z,16.68
2018-05-14T04:27:51.320Z,16.50
2018-05-14T04:28:56.831Z,16.52
2018-05-14T04:30:02.349Z,16.67
2018-05-14T04:31:07.870Z,16.58
2018-05-14T04:32:13.376Z,16.56
2018-05-14T04:33:18.949Z,16.53
2018-05-14T04:34:24.414Z,16.60
2018-05-14T04:35:29.930Z,16.67
2018-05-14T04:36:35.437Z,16.67
2018-05-14T04:37:40.956Z,16.65
2018-05-14T04:38:46.480Z,16.73
2018-05-14T04:39:51.984Z,16.65
2018-05-14T04:40:57.504Z,16.62
2018-05-14T04:42:03.027Z,16.68
2018-05-14T04:43:08.526Z,16.67
2018-05-14T04:44:14.047Z,16.68
2018-05-14T04:45:19.561Z,16.65
2018-05-14T04:46:25.084Z,16.71
2018-05-14T04:47:30.592Z,16.71
2018-05-14T04:48:36.122Z,16.70
2018-05-14T04:49:41.628Z,16.73
2018-05-14T04:50:47.138Z,16.80
2018-05-14T04:51:52.654Z,16.67
2018-05-14T04:52:58.167Z,16.65
2018-05-14T04:54:03.683Z,16.78
2018-05-14T04:55:09.199Z,16.80
2018-05-14T04:56:14.718Z,16.77
2018-05-14T04:57:20.238Z,16.74
2018-05-14T04:58:25.744Z,16.73
2018-05-14T04:59:31.260Z,16.80
2018-05-14T05:00:36.775Z,16.80
2018-05-14T05:01:42.294Z,16.78
2018-05-14T05:02:47.813Z,16.78
2018-05-14T05:03:53.319Z,16.80
2018-05-14T05:04:58.839Z,16.86
2018-05-14T05:06:04.351Z,16.85
2018-05-14T05:07:09.865Z,16.77
2018-05-14T05:08:15.486Z,16.81
2018-05-14T05:09:20.901Z,16.78
2018-05-14T05:10:26.545Z,16.81
2018-05-14T05:11:32.001Z,16.80
2018-05-14T05:12:37.459Z,16.88
2018-05-14T05:13:42.965Z,16.95
2018-05-14T05:14:48.474Z,16.89
2018-05-14T05:15:54.036Z,16.83
2018-05-14T05:16:59.522Z,16.80
2018-05-14T05:18:05.033Z,16.78
2018-05-14T05:19:10.538Z,16.96
2018-05-14T05:20:16.076Z,16.90
2018-05-14T05:21:21.568Z,16.92
2018-05-14T05:22:27.084Z,16.83
2018-05-14T05:23:32.605Z,16.98
2018-05-14T05:24:38.118Z,16.99
2018-05-14T05:25:43.645Z,16.96
2018-05-14T05:26:49.145Z,16.99
2018-05-14T05:27:54.658Z,17.00
2018-05-14T05:29:00.176Z,16.96
2018-05-14T05:30:05.699Z,17.06
2018-05-14T05:31:11.208Z,17.10
2018-05-14T05:32:16.729Z,17.13
2018-05-14T05:33:22.238Z,17.07
2018-05-14T05:34:27.753Z,17.10
2018-05-14T05:35:33.277Z,17.15
2018-05-14T05:36:38.792Z,17.15
2018-05-14T05:37:44.401Z,17.11
2018-05-14T05:38:49.816Z,17.14
2018-05-14T05:39:55.331Z,17.14
2018-05-14T05:41:00.847Z,17.13
2018-05-14T05:42:06.364Z,17.18
2018-05-14T05:43:11.883Z,17.22
2018-05-14T05:44:17.398Z,17.28
2018-05-14T05:45:22.956Z,17.29
2018-05-14T05:46:28.445Z,17.23
2018-05-14T05:47:34.019Z,17.26
2018-05-14T05:48:39.465Z,17.28
2018-05-14T05:49:44.975Z,17.25
2018-05-14T05:50:50.485Z,17.25
2018-05-14T05:51:56.000Z,17.28
2018-05-14T05:53:01.526Z,17.33
2018-05-14T05:54:07.034Z,17.26
2018-05-14T05:55:12.558Z,17.29
2018-05-14T05:56:18.072Z,17.28
2018-05-14T05:57:23.592Z,17.33
2018-05-14T05:58:29.093Z,17.33
2018-05-14T05:59:34.616Z,17.30
2018-05-14T06:00:40.128Z,17.35
2018-05-14T06:01:45.640Z,17.38
2018-05-14T06:02:51.159Z,17.36
2018-05-14T06:03:56.676Z,17.30
2018-05-14T06:05:02.191Z,17.38
2018-05-14T06:06:07.712Z,17.35
2018-05-14T06:07:13.225Z,17.38
2018-05-14T06:08:18.839Z,17.36
2018-05-14T06:09:24.347Z,17.40
2018-05-14T06:10:29.767Z,17.50
2018-05-14T06:11:35.281Z,17.38
2018-05-14T06:12:40.801Z,17.41
2018-05-14T06:13:46.313Z,17.50
2018-05-14T06:14:51.835Z,17.46
2018-05-14T06:15:57.348Z,17.50
2018-05-14T06:17:02.867Z,17.48
2018-05-14T06:18:08.388Z,17.63
2018-05-14T06:19:13.897Z,17.51
2018-05-14T06:20:19.415Z,17.59
2018-05-14T06:21:24.932Z,17.62
2018-05-14T06:22:30.453Z,17.69
2018-05-14T06:23:35.958Z,17.70
2018-05-14T06:24:41.480Z,17.76
2018-05-14T06:25:46.991Z,17.74
2018-05-14T06:26:52.884Z,17.76
2018-05-14T06:27:58.022Z,17.81
2018-05-14T06:29:03.539Z,17.87
2018-05-14T06:30:09.057Z,17.84
2018-05-14T06:31:14.573Z,17.82
2018-05-14T06:32:20.090Z,17.85
2018-05-14T06:33:25.602Z,17.87
2018-05-14T06:34:31.116Z,17.91
2018-05-14T06:35:36.734Z,17.88
2018-05-14T06:36:42.161Z,17.88
2018-05-14T06:37:47.669Z,17.84
2018-05-14T06:38:53.262Z,17.99
2018-05-14T06:39:58.697Z,17.97
2018-05-14T06:41:04.234Z,17.84
2018-05-14T06:42:09.737Z,17.97
2018-05-14T06:43:15.243Z,17.84
2018-05-14T06:44:20.777Z,17.88
2018-05-14T06:45:26.283Z,17.97
2018-05-14T06:46:31.801Z,18.06
2018-05-14T06:47:37.316Z,18.02
2018-05-14T06:48:42.828Z,17.99
2018-05-14T06:49:48.400Z,18.09
2018-05-14T06:50:53.856Z,18.17
2018-05-14T06:51:59.388Z,18.13
2018-05-14T06:53:04.903Z,18.18
2018-05-14T06:54:10.443Z,18.18
2018-05-14T06:55:16.045Z,18.18
2018-05-14T06:56:21.437Z,18.18
2018-05-14T06:57:26.957Z,18.21
2018-05-14T06:58:32.471Z,18.22
2018-05-14T06:59:38.020Z,18.22
2018-05-14T07:00:43.506Z,18.34
2018-05-14T07:01:49.025Z,18.28
2018-05-14T07:02:54.536Z,18.31
2018-05-14T07:04:00.065Z,18.34
2018-05-14T07:05:05.578Z,18.29
2018-05-14T07:06:11.087Z,18.33
2018-05-14T07:07:16.602Z,18.39
2018-05-14T07:08:22.118Z,18.36
2018-05-14T07:09:27.653Z,18.44
2018-05-14T07:10:33.151Z,18.44
2018-05-14T07:11:38.665Z,18.40
2018-05-14T07:12:44.190Z,18.44
2018-05-14T07:13:49.699Z,18.46
2018-05-14T07:14:55.218Z,18.47
2018-05-14T07:16:00.733Z,18.47
2018-05-14T07:17:06.252Z,18.39
2018-05-14T07:18:11.766Z,18.54
2018-05-14T07:19:17.379Z,18.47
2018-05-14T07:20:22.801Z,18.47
2018-05-14T07:21:28.317Z,18.44
2018-05-14T07:22:33.835Z,18.50
2018-05-14T07:23:39.348Z,18.61
2018-05-14T07:24:44.892Z,18.62
2018-05-14T07:25:50.405Z,18.58
2018-05-14T07:26:55.898Z,18.68
2018-05-14T07:28:01.414Z,18.61
2018-05-14T07:29:06.940Z,18.72
2018-05-14T07:30:12.450Z,18.70
2018-05-14T07:31:17.962Z,18.72
2018-05-14T07:32:23.488Z,18.70
2018-05-14T07:33:29.001Z,18.74
2018-05-14T07:34:34.518Z,18.82
2018-05-14T07:35:40.244Z,18.84
2018-05-14T07:36:45.547Z,18.77
2018-05-14T07:37:51.065Z,18.92
2018-05-14T07:38:56.701Z,18.87
2018-05-14T07:40:02.096Z,18.90
2018-05-14T07:41:07.612Z,18.92
2018-05-14T07:42:13.202Z,18.91
2018-05-14T07:43:18.654Z,18.92
2018-05-14T07:44:24.165Z,18.87
2018-05-14T07:45:29.676Z,19.02
2018-05-14T07:46:35.202Z,19.01
2018-05-14T07:47:40.715Z,19.08
2018-05-14T07:48:46.230Z,19.06
2018-05-14T07:49:51.757Z,19.13
2018-05-14T07:50:57.270Z,19.14
2018-05-14T07:52:02.785Z,19.23
2018-05-14T07:53:08.301Z,19.17
2018-05-14T07:54:13.817Z,19.25
2018-05-14T07:55:19.329Z,19.17
2018-05-14T07:56:24.844Z,19.15
2018-05-14T07:57:30.362Z,19.14
2018-05-14T07:58:35.892Z,19.17
2018-05-14T07:59:41.400Z,19.14
2018-05-14T08:00:46.913Z,19.32
2018-05-14T08:01:52.435Z,19.28
2018-05-14T08:02:57.945Z,19.42
2018-05-14T08:04:03.466Z,19.47
2018-05-14T08:05:08.988Z,19.50
2018-05-14T08:06:14.497Z,19.51
2018-05-14T08:07:20.016Z,19.58
2018-05-14T08:08:25.537Z,19.66
2018-05-14T08:09:31.148Z,19.69
2018-05-14T08:10:36.573Z,19.69
2018-05-14T08:11:42.090Z,19.69
2018-05-14T08:12:47.609Z,19.78
2018-05-14T08:13:53.117Z,19.73
2018-05-14T08:14:58.642Z,19.70
2018-05-14T08:16:04.160Z,19.70
2018-05-14T08:17:09.757Z,19.75
2018-05-14T08:18:15.194Z,19.73
2018-05-14T08:19:20.705Z,19.72
2018-05-14T08:20:26.225Z,19.75
2018-05-14T08:21:31.737Z,19.79
2018-05-14T08:22:37.260Z,19.83
2018-05-14T08:23:42.777Z,19.78
2018-05-14T08:24:48.303Z,19.80
2018-05-14T08:25:53.811Z,19.78
2018-05-14T08:26:59.320Z,19.80
2018-05-14T08:28:04.843Z,19.84
2018-05-14T08:29:10.354Z,19.90
2018-05-14T08:30:15.887Z,19.83
2018-05-14T08:31:21.425Z,19.84
2018-05-14T08:32:26.907Z,19.83
2018-05-14T08:33:32.426Z,19.84
2018-05-14T08:34:37.957Z,19.84
2018-05-14T08:35:43.456Z,19.91
2018-05-14T08:36:48.978Z,19.94
2018-05-14T08:37:54.500Z,19.86
2018-05-14T08:39:00.012Z,19.84
2018-05-14T08:40:05.555Z,19.80
2018-05-14T08:41:11.054Z,19.80
2018-05-14T08:42:16.574Z,19.88
2018-05-14T08:43:22.099Z,19.78
2018-05-14T08:44:27.610Z,19.90
2018-05-14T08:45:33.119Z,19.97
2018-05-14T08:46:38.628Z,19.91
2018-05-14T08:47:44.157Z,20.02
2018-05-14T08:48:49.663Z,20.02
2018-05-14T08:49:55.184Z,20.09
2018-05-14T08:51:00.700Z,20.10
2018-05-14T08:52:06.228Z,20.20
2018-05-14T08:53:11.737Z,20.23
2018-05-14T08:54:17.378Z,20.30
2018-05-14T08:55:22.771Z,20.34
2018-05-14T08:56:28.291Z,20.43
2018-05-14T08:57:33.887Z,20.38
2018-05-14T08:58:39.324Z,20.46
2018-05-14T08:59:44.855Z,20.38
2018-05-14T09:00:50.441Z,20.46
2018-05-14T09:01:55.871Z,20.46
2018-05-14T09:03:01.396Z,20.50
2018-05-14T09:04:06.904Z,20.54
2018-05-14T09:05:12.435Z,20.56
2018-05-14T09:06:17.943Z,20.47
2018-05-14T09:07:23.461Z,20.54
2018-05-14T09:08:28.977Z,20.59
2018-05-14T09:09:34.498Z,20.56
2018-05-14T09:10:40.015Z,20.64
2018-05-14T09:11:45.548Z,20.64
2018-05-14T09:12:51.071Z,20.66
2018-05-14T09:13:56.569Z,20.74
2018-05-14T09:15:02.081Z,20.64
2018-05-14T09:16:07.602Z,20.74
2018-05-14T09:17:13.119Z,20.81
2018-05-14T09:18:18.649Z,20.90
2018-05-14T09:19:24.251Z,20.93
2018-05-14T09:20:29.679Z,20.87
2018-05-14T09:21:35.247Z,20.90
2018-05-14T09:22:40.713Z,20.93
2018-05-14T09:23:46.227Z,21.01
2018-05-14T09:24:51.752Z,21.04
2018-05-14T09:25:57.267Z,21.09
2018-05-14T09:27:02.780Z,21.08
2018-05-14T09:28:08.295Z,21.17
2018-05-14T09:29:13.811Z,21.09
2018-05-14T09:30:19.329Z,21.23
2018-05-14T09:31:25.014Z,21.27
2018-05-14T09:32:30.365Z,21.27
2018-05-14T09:33:35.885Z,21.34
2018-05-14T09:34:41.518Z,21.35
2018-05-14T09:35:46.934Z,21.32
2018-05-14T09:36:52.437Z,21.42
2018-05-14T09:37:57.963Z,21.42
2018-05-14T09:39:03.475Z,21.41
2018-05-14T09:40:09.002Z,21.38
2018-05-14T09:41:14.521Z,21.44
2018-05-14T09:42:20.036Z,21.57
2018-05-14T09:43:25.549Z,21.56
2018-05-14T09:44:31.105Z,21.61
2018-05-14T09:45:36.583Z,21.63
2018-05-14T09:46:42.106Z,21.60
2018-05-14T09:47:47.626Z,21.67
2018-05-14T09:48:53.146Z,21.81
2018-05-14T09:49:58.660Z,21.83
2018-05-14T09:51:04.174Z,21.82
2018-05-14T09:52:09.697Z,21.91
2018-05-14T09:53:15.220Z,21.94
2018-05-14T09:54:20.732Z,21.99
2018-05-14T09:55:26.246Z,22.02
2018-05-14T09:56:31.777Z,22.07
2018-05-14T09:57:37.301Z,22.09
2018-05-14T09:58:42.811Z,22.04
2018-05-14T09:59:48.324Z,22.10
2018-05-14T10:00:53.838Z,22.09
2018-05-14T10:01:59.370Z,22.09
2018-05-14T10:03:05.205Z,22.23
2018-05-14T10:04:10.398Z,22.25
2018-05-14T10:05:16.008Z,22.29
2018-05-14T10:06:21.440Z,22.29
2018-05-14T10:07:26.970Z,22.39
2018-05-14T10:08:32.468Z,22.46
2018-05-14T10:09:37.991Z,22.50
2018-05-14T10:10:43.503Z,22.43
2018-05-14T10:11:49.036Z,22.57
2018-05-14T10:12:54.630Z,22.50
2018-05-14T10:14:00.066Z,22.54
2018-05-14T10:15:05.591Z,22.54
2018-05-14T10:16:11.103Z,22.59
2018-05-14T10:17:16.626Z,22.62
2018-05-14T10:18:22.146Z,22.69
2018-05-14T10:19:27.655Z,22.72
2018-05-14T10:20:33.192Z,22.78
2018-05-14T10:21:38.700Z,22.83
2018-05-14T10:22:44.216Z,22.83
2018-05-14T10:23:49.730Z,22.90
2018-05-14T10:24:55.255Z,22.92
2018-05-14T10:26:00.781Z,23.04
2018-05-14T10:27:06.291Z,23.05
2018-05-14T10:28:11.817Z,23.19
2018-05-14T10:29:17.327Z,23.20
2018-05-14T10:30:22.847Z,23.19
2018-05-14T10:31:28.364Z,23.26
2018-05-14T10:32:34.110Z,23.32
2018-05-14T10:33:39.402Z,23.39
2018-05-14T10:34:44.992Z,23.43
2018-05-14T10:35:50.470Z,23.38
2018-05-14T10:36:55.966Z,23.47
2018-05-14T10:38:01.485Z,23.58
2018-05-14T10:39:06.999Z,23.60
2018-05-14T10:40:12.519Z,23.64
2018-05-14T10:41:18.054Z,23.72
2018-05-14T10:42:23.568Z,23.79
2018-05-14T10:43:29.086Z,23.72
2018-05-14T10:44:34.596Z,23.79
2018-05-14T10:45:40.121Z,23.92
2018-05-14T10:46:45.729Z,23.85
2018-05-14T10:47:51.162Z,23.98
2018-05-14T10:48:56.678Z,23.97
2018-05-14T10:50:02.200Z,24.02
2018-05-14T10:51:07.714Z,24.14
2018-05-14T10:52:13.236Z,24.02
2018-05-14T10:53:18.755Z,24.12
2018-05-14T10:54:24.285Z,24.02
2018-05-14T10:55:29.793Z,24.00
2018-05-14T10:56:35.307Z,23.95
2018-05-14T10:57:40.836Z,23.92
2018-05-14T10:58:46.441Z,24.00
2018-05-14T10:59:51.888Z,24.08
2018-05-14T11:00:57.389Z,24.16
2018-05-14T11:02:02.910Z,24.22
2018-05-14T11:03:08.524Z,24.26
2018-05-14T11:04:13.958Z,24.26
2018-05-14T11:05:19.491Z,24.39
2018-05-14T11:06:24.992Z,24.52
2018-05-14T11:07:30.522Z,24.47
2018-05-14T11:08:36.039Z,24.53
2018-05-14T11:09:41.547Z,24.59
2018-05-14T11:10:47.077Z,24.59
2018-05-14T11:11:52.592Z,24.63
2018-05-14T11:12:58.109Z,24.60
2018-05-14T11:14:03.640Z,24.61
2018-05-14T11:15:09.150Z,24.69
2018-05-14T11:16:14.674Z,24.77
2018-05-14T11:17:20.198Z,24.88
2018-05-14T11:18:25.714Z,24.85
2018-05-14T11:19:31.230Z,24.88
2018-05-14T11:20:36.756Z,24.97
2018-05-14T11:21:42.280Z,24.98
2018-05-14T11:22:47.793Z,24.98
2018-05-14T11:23:53.315Z,25.12
2018-05-14T11:24:58.837Z,25.00
2018-05-14T11:26:04.359Z,25.13
2018-05-14T11:27:09.881Z,25.17
2018-05-14T11:28:15.416Z,25.13
2018-05-14T11:29:20.912Z,25.25
2018-05-14T11:30:26.443Z,25.31
2018-05-14T11:31:31.958Z,25.24
2018-05-14T11:32:37.489Z,25.32
2018-05-14T11:33:42.996Z,25.47
2018-05-14T11:34:48.527Z,25.46
2018-05-14T11:35:54.037Z,25.47
2018-05-14T11:36:59.558Z,25.42
2018-05-14T11:38:05.072Z,25.44
2018-05-14T11:39:10.593Z,25.54
2018-05-14T11:40:16.120Z,25.59
2018-05-14T11:41:21.632Z,25.57
2018-05-14T11:42:27.156Z,25.57
2018-05-14T11:43:32.680Z,25.61
2018-05-14T11:44:38.197Z,25.74
2018-05-14T11:45:43.722Z,25.77
2018-05-14T11:46:49.248Z,25.74
2018-05-14T11:47:54.772Z,25.69
2018-05-14T11:49:00.298Z,25.74
2018-05-14T11:50:05.802Z,25.83
2018-05-14T11:51:11.323Z,25.84
2018-05-14T11:52:16.850Z,25.90
2018-05-14T11:53:22.362Z,25.94
2018-05-14T11:54:27.892Z,25.86
2018-05-14T11:55:33.453Z,25.98
2018-05-14T11:56:38.948Z,26.01
2018-05-14T11:57:44.449Z,26.01
2018-05-14T11:58:49.966Z,26.01
2018-05-14T11:59:55.488Z,25.94
2018-05-14T12:01:01.011Z,26.06
2018-05-14T12:02:06.535Z,26.08
2018-05-14T12:03:12.180Z,26.15
2018-05-14T12:04:17.579Z,26.09
2018-05-14T12:05:23.096Z,26.11
2018-05-14T12:06:28.632Z,26.12
2018-05-14T12:07:34.136Z,26.21
2018-05-14T12:08:39.654Z,26.22
2018-05-14T12:09:45.176Z,26.22
2018-05-14T12:10:50.708Z,26.27
2018-05-14T12:11:56.222Z,26.29
2018-05-14T12:13:01.746Z,26.21
2018-05-14T12:14:07.274Z,26.29
2018-05-14T12:15:12.776Z,26.37
2018-05-14T12:16:18.312Z,26.28
2018-05-14T12:17:23.827Z,26.47
2018-05-14T12:18:29.349Z,26.49
2018-05-14T12:19:35.864Z,26.54
2018-05-14T12:20:40.411Z,26.49
2018-05-14T12:21:45.906Z,26.59
2018-05-14T12:22:51.429Z,26.64
2018-05-14T12:23:56.948Z,26.67
2018-05-14T12:25:02.473Z,26.68
2018-05-14T12:26:07.997Z,26.61
2018-05-14T12:27:13.518Z,26.69
2018-05-14T12:28:19.034Z,26.65
2018-05-14T12:29:24.557Z,26.77
2018-05-14T12:30:30.093Z,26.79
2018-05-14T12:31:35.598Z,26.80
2018-05-14T12:32:41.119Z,26.81
2018-05-14T12:33:46.649Z,26.80
2018-05-14T12:34:52.167Z,26.86
2018-05-14T12:35:57.688Z,26.87
2018-05-14T12:37:03.214Z,26.79
2018-05-14T12:38:08.730Z,26.91
2018-05-14T12:39:14.249Z,26.79
2018-05-14T12:40:19.777Z,26.87
2018-05-14T12:41:25.298Z,26.91
2018-05-14T12:42:30.832Z,26.77
2018-05-14T12:43:36.337Z,26.79
2018-05-14T12:44:41.855Z,26.94
2018-05-14T12:45:47.473Z,26.91
2018-05-14T12:46:52.905Z,26.87
2018-05-14T12:47:58.440Z,26.91
2018-05-14T12:49:03.946Z,26.86
2018-05-14T12:50:09.468Z,26.91
2018-05-14T12:51:14.986Z,26.81
2018-05-14T12:52:20.508Z,26.83
2018-05-14T12:53:26.034Z,26.79
2018-05-14T12:54:31.559Z,26.83
2018-05-14T12:55:37.086Z,26.83
2018-05-14T12:56:42.598Z,26.95
2018-05-14T12:57:48.131Z,26.99
2018-05-14T12:58:53.644Z,26.98
2018-05-14T12:59:59.162Z,27.04
2018-05-14T13:01:04.685Z,27.06
2018-05-14T13:02:10.199Z,26.98
2018-05-14T13:03:15.730Z,26.99
2018-05-14T13:04:21.248Z,26.99
2018-05-14T13:05:26.772Z,27.04
2018-05-14T13:06:32.290Z,27.11
2018-05-14T13:07:37.811Z,27.13
2018-05-14T13:08:43.333Z,27.24
2018-05-14T13:09:48.858Z,27.16
2018-05-14T13:10:54.397Z,27.19
2018-05-14T13:11:59.907Z,27.17
2018-05-14T13:13:05.446Z,27.23
2018-05-14T13:14:10.939Z,27.20
2018-05-14T13:15:16.471Z,27.31
2018-05-14T13:16:21.991Z,27.26
2018-05-14T13:17:27.510Z,27.26
2018-05-14T13:18:33.035Z,27.17
2018-05-14T13:19:38.554Z,27.17
2018-05-14T13:20:44.089Z,27.20
2018-05-14T13:21:49.609Z,27.16
2018-05-14T13:22:55.126Z,27.24
2018-05-14T13:24:00.635Z,27.20
2018-05-14T13:25:06.161Z,27.20
2018-05-14T13:26:11.750Z,27.17
2018-05-14T13:27:17.207Z,27.23
2018-05-14T13:28:22.732Z,27.16
2018-05-14T13:29:28.245Z,27.17
2018-05-14T13:30:33.770Z,27.16
2018-05-14T13:31:39.290Z,27.20
2018-05-14T13:32:44.824Z,27.19
2018-05-14T13:33:50.336Z,27.24
2018-05-14T13:34:55.860Z,27.21
2018-05-14T13:36:01.384Z,27.16
2018-05-14T13:37:06.901Z,27.21
2018-05-14T13:38:12.420Z,27.20
2018-05-14T13:39:17.941Z,27.19
2018-05-14T13:40:23.461Z,27.21
2018-05-14T13:41:28.988Z,27.17
2018-05-14T13:42:34.622Z,27.28
2018-05-14T13:43:40.038Z,27.20
2018-05-14T13:44:45.566Z,27.24
2018-05-14T13:45:51.079Z,27.16
2018-05-14T13:46:56.602Z,27.20
2018-05-14T13:48:02.120Z,27.21
2018-05-14T13:49:07.638Z,27.17
2018-05-14T13:50:13.172Z,27.14
2018-05-14T13:51:18.680Z,27.21
2018-05-14T13:52:24.205Z,27.23
2018-05-14T13:53:29.736Z,27.24
2018-05-14T13:54:35.261Z,27.29
2018-05-14T13:55:40.772Z,27.16
2018-05-14T13:56:46.297Z,27.24
2018-05-14T13:57:51.814Z,27.20
2018-05-14T13:58:57.368Z,27.16
2018-05-14T14:00:02.865Z,27.19
2018-05-14T14:01:08.386Z,27.13
2018-05-14T14:02:13.911Z,27.05
2018-05-14T14:03:19.425Z,27.09